Time;durP1;ratioP1;P1;durP2;ratioP2;P2;SDS_P1;SDS_P2;PMS_P1;PMS_P2;Temp;Humidity;BMP_temperature;BMP_pressure;BME280_temperature;BME280_humidity;BME280_pressure;Samples;Min_cycle;Max_cycle;Signal;HPM_P1;HPM_P2
2023/06/19 00:00:18;;;;;;;14.30;5.40;;;;;;;15.14;77.15;100193.77;110185;1265;22252;-59
2023/06/19 00:03:10;;;;;;;11.50;5.20;;;;;;;15.09;77.17;100193.42;110196;1271;22177;-60
2023/06/19 00:05:41;;;;;;;12.20;5.40;;;;;;;15.04;77.48;100198.42;110217;1271;22860;-60
2023/06/19 00:08:12;;;;;;;15.10;5.90;;;;;;;14.98;77.43;100200.38;110186;1265;23572;-61
2023/06/19 00:10:43;;;;;;;11.90;5.30;;;;;;;14.93;77.64;100197.45;110182;1271;22282;-61
2023/06/19 00:13:14;;;;;;;11.80;4.80;;;;;;;14.90;77.75;100196.58;110183;1270;22345;-61
2023/06/19 00:15:45;;;;;;;13.50;5.20;;;;;;;14.88;77.78;100194.43;110233;1278;22175;-60
2023/06/19 00:18:17;;;;;;;11.20;4.90;;;;;;;14.86;77.90;100194.93;110180;1271;22150;-60
2023/06/19 00:20:48;;;;;;;13.60;5.80;;;;;;;14.83;77.74;100188.86;110162;1271;22315;-59
2023/06/19 00:23:19;;;;;;;10.00;4.30;;;;;;;14.79;77.83;100187.69;110203;1271;23064;-59
2023/06/19 00:25:50;;;;;;;11.20;4.10;;;;;;;14.75;78.11;100189.57;110143;1270;22172;-59
2023/06/19 00:28:21;;;;;;;8.50;2.90;;;;;;;14.71;78.15;100186.95;110192;1263;23052;-59
2023/06/19 00:30:52;;;;;;;11.90;3.20;;;;;;;14.69;78.24;100187.05;110182;1278;22197;-59
2023/06/19 00:33:23;;;;;;;10.30;4.00;;;;;;;14.65;78.23;100180.81;110200;1266;22266;-59
2023/06/19 00:35:55;;;;;;;9.10;3.20;;;;;;;14.63;78.44;100183.83;110204;1267;22174;-59
2023/06/19 00:38:26;;;;;;;8.80;2.80;;;;;;;14.60;78.45;100183.26;110170;1266;22145;-61
2023/06/19 00:40:57;;;;;;;8.70;3.60;;;;;;;14.58;78.51;100188.27;110162;1271;22170;-59
2023/06/19 00:43:28;;;;;;;10.80;3.50;;;;;;;14.55;78.71;100186.41;110182;1271;22250;-60
2023/06/19 00:46:00;;;;;;;10.40;4.10;;;;;;;14.54;79.06;100185.55;110198;1278;22189;-59
2023/06/19 00:48:33;;;;;;;13.40;3.80;;;;;;;14.52;79.18;100181.91;106034;1271;5404743;-60
2023/06/19 00:51:05;;;;;;;13.30;5.40;;;;;;;14.50;79.31;100180.13;110193;1270;22150;-60
2023/06/19 00:53:36;;;;;;;12.60;5.70;;;;;;;14.49;79.54;100180.99;110202;1267;23072;-59
2023/06/19 00:56:08;;;;;;;15.90;6.40;;;;;;;14.47;79.88;100182.33;110206;1271;23022;-59
2023/06/19 00:58:38;;;;;;;12.10;5.60;;;;;;;14.46;80.07;100177.00;110193;1264;22384;-60
2023/06/19 01:01:09;;;;;;;15.40;6.20;;;;;;;14.45;80.10;100174.04;109618;1272;22525;-59
2023/06/19 01:03:40;;;;;;;14.30;6.50;;;;;;;14.42;80.55;100174.39;106159;1278;25314;-58
2023/06/19 01:06:15;;;;;;;15.00;6.60;;;;;;;14.40;80.69;100179.29;106219;1278;24292;-59
2023/06/19 01:08:54;;;;;;;13.80;5.70;;;;;;;14.38;80.73;100176.16;110166;1266;22255;-60
2023/06/19 01:11:31;;;;;;;16.30;6.80;;;;;;;14.34;80.76;100175.29;110175;1274;22218;-59
2023/06/19 01:14:07;;;;;;;13.20;5.90;;;;;;;14.29;80.82;100173.23;110210;1271;22182;-60
2023/06/19 01:16:38;;;;;;;13.50;5.70;;;;;;;14.25;80.88;100179.36;110110;1275;22887;-60
2023/06/19 01:19:16;;;;;;;12.70;5.80;;;;;;;14.21;81.01;100174.75;110167;1262;22431;-59
2023/06/19 01:21:47;;;;;;;12.40;5.10;;;;;;;14.17;81.20;100174.59;110176;1278;22350;-60
2023/06/19 01:24:18;;;;;;;12.40;5.40;;;;;;;14.13;81.00;100171.91;110191;1267;22149;-60
2023/06/19 01:26:49;;;;;;;13.70;5.30;;;;;;;14.09;81.10;100178.45;110197;1266;22172;-60
2023/06/19 01:29:20;;;;;;;11.80;5.10;;;;;;;14.06;81.29;100175.16;110194;1271;22245;-60
2023/06/19 01:31:56;;;;;;;11.40;5.50;;;;;;;14.01;81.14;100174.08;110163;1266;22328;-60
2023/06/19 01:34:30;;;;;;;12.50;4.90;;;;;;;13.97;81.17;100174.65;110193;1262;22271;-60
2023/06/19 01:37:02;;;;;;;12.10;5.60;;;;;;;13.93;81.22;100170.31;110206;1278;22158;-60
2023/06/19 01:39:35;;;;;;;18.40;5.20;;;;;;;13.90;81.23;100173.26;110204;1278;22172;-60
2023/06/19 01:42:09;;;;;;;10.60;4.80;;;;;;;13.88;81.51;100178.56;110176;1263;22156;-60
2023/06/19 01:44:40;;;;;;;10.80;5.00;;;;;;;13.85;81.32;100177.41;110167;1272;22250;-60
2023/06/19 01:47:13;;;;;;;11.40;5.60;;;;;;;13.82;81.37;100178.63;110196;1266;22240;-60
2023/06/19 01:49:44;;;;;;;15.10;5.70;;;;;;;13.80;81.40;100179.13;106927;1271;22523;-58
2023/06/19 01:52:15;;;;;;;15.70;6.90;;;;;;;13.78;81.54;100177.08;110169;1270;22401;-60
2023/06/19 01:54:46;;;;;;;16.30;6.50;;;;;;;13.77;81.63;100179.06;110188;1270;22227;-60
2023/06/19 01:57:17;;;;;;;13.30;6.20;;;;;;;13.76;82.05;100179.25;110181;1271;22206;-59
2023/06/19 01:59:48;;;;;;;16.10;7.20;;;;;;;13.74;82.21;100180.33;108628;1268;22576;-60
2023/06/19 02:02:19;;;;;;;15.90;6.90;;;;;;;13.72;82.13;100177.52;106135;1271;24225;-59
2023/06/19 02:04:50;;;;;;;14.90;6.40;;;;;;;13.69;82.19;100179.89;106114;1277;24859;-58
2023/06/19 02:07:21;;;;;;;14.70;6.70;;;;;;;13.65;82.25;100177.52;106129;1270;22542;-58
2023/06/19 02:09:52;;;;;;;13.70;6.10;;;;;;;13.61;82.19;100177.60;106079;1271;22843;-56
2023/06/19 02:12:23;;;;;;;15.20;6.50;;;;;;;13.58;82.42;100176.56;106146;1267;22623;-59
2023/06/19 02:14:54;;;;;;;14.00;5.60;;;;;;;13.54;82.44;100177.86;106084;1274;25313;-58
2023/06/19 02:17:25;;;;;;;13.60;6.10;;;;;;;13.50;82.65;100175.41;106079;1275;24212;-59
2023/06/19 02:19:56;;;;;;;14.40;6.20;;;;;;;13.46;82.84;100173.23;106104;1272;22748;-60
2023/06/19 02:22:27;;;;;;;12.80;6.30;;;;;;;13.43;82.77;100170.72;106070;1270;24264;-59
2023/06/19 02:24:58;;;;;;;12.90;5.80;;;;;;;13.39;82.97;100172.02;106075;1278;24224;-58
2023/06/19 02:27:29;;;;;;;16.60;6.20;;;;;;;13.37;82.80;100173.63;106118;1272;23865;-60
2023/06/19 02:30:00;;;;;;;13.80;6.30;;;;;;;13.33;83.04;100173.61;106090;1262;22842;-60
2023/06/19 02:32:31;;;;;;;12.90;5.40;;;;;;;13.29;83.10;100171.34;106159;1275;22521;-60
2023/06/19 02:35:02;;;;;;;16.60;6.20;;;;;;;13.25;83.08;100173.85;106149;1278;22662;-60
2023/06/19 02:37:32;;;;;;;16.00;6.20;;;;;;;13.21;83.18;100171.38;106088;1265;22526;-59
2023/06/19 02:40:05;;;;;;;13.70;5.80;;;;;;;13.18;83.27;100173.65;106303;1272;24207;-60
2023/06/19 02:42:35;;;;;;;13.70;6.40;;;;;;;13.15;83.37;100178.77;110193;1278;22412;-61
2023/06/19 02:45:08;;;;;;;12.70;5.90;;;;;;;13.13;83.32;100178.77;110145;1271;22183;-60
2023/06/19 02:47:39;;;;;;;18.80;7.20;;;;;;;13.11;83.53;100177.37;107204;1272;22519;-59
2023/06/19 02:50:11;;;;;;;13.50;6.00;;;;;;;13.10;83.70;100175.27;106065;1270;22583;-59
2023/06/19 02:52:42;;;;;;;15.50;6.10;;;;;;;13.09;83.89;100179.90;110178;1272;22245;-61
2023/06/19 02:55:12;;;;;;;13.30;5.50;;;;;;;13.08;84.20;100185.24;110191;1270;22269;-60
2023/06/19 02:57:44;;;;;;;12.40;5.80;;;;;;;13.08;84.10;100183.05;110194;1278;22189;-60
2023/06/19 03:00:17;;;;;;;13.90;6.20;;;;;;;13.07;84.22;100180.70;110164;1273;22227;-60
2023/06/19 03:02:48;;;;;;;15.20;7.00;;;;;;;13.07;84.38;100182.94;110197;1268;22264;-61
2023/06/19 03:05:19;;;;;;;14.60;7.00;;;;;;;13.06;84.55;100185.68;110194;1270;22185;-60
2023/06/19 03:07:50;;;;;;;14.20;6.50;;;;;;;13.08;84.62;100183.27;110175;1271;22277;-61
2023/06/19 03:10:21;;;;;;;18.00;6.90;;;;;;;13.09;84.87;100186.73;110209;1262;23213;-60
2023/06/19 03:12:52;;;;;;;13.80;7.20;;;;;;;13.09;85.17;100188.58;108612;1277;26004;-59
2023/06/19 03:15:23;;;;;;;14.40;7.10;;;;;;;13.10;85.32;100195.80;106146;1278;24354;-60
2023/06/19 03:17:55;;;;;;;14.40;7.20;;;;;;;13.12;85.47;100201.98;106035;1272;25412;-60
2023/06/19 03:20:26;;;;;;;15.80;7.20;;;;;;;13.13;85.59;100199.05;106094;1278;24264;-59
2023/06/19 03:23:00;;;;;;;15.20;7.00;;;;;;;13.13;85.62;100196.80;106144;1278;22523;-59
2023/06/19 03:25:34;;;;;;;17.90;7.40;;;;;;;13.14;85.77;100190.58;106089;1272;23077;-59
2023/06/19 03:28:06;;;;;;;17.50;8.30;;;;;;;13.14;85.81;100190.84;106141;1272;22737;-60
2023/06/19 03:30:37;;;;;;;16.50;7.70;;;;;;;13.15;86.07;100191.77;106056;1268;22574;-59
2023/06/19 03:33:07;;;;;;;18.00;8.10;;;;;;;13.16;86.29;100189.48;106115;1278;25409;-58
2023/06/19 03:35:39;;;;;;;17.20;7.90;;;;;;;13.16;86.44;100187.71;106120;1278;22589;-59
2023/06/19 03:38:10;;;;;;;19.40;9.20;;;;;;;13.17;86.68;100191.48;106136;1258;22523;-59
2023/06/19 03:40:41;;;;;;;18.50;9.10;;;;;;;13.17;86.67;100189.48;106157;1270;25290;-59
2023/06/19 03:43:12;;;;;;;17.50;8.50;;;;;;;13.19;86.75;100186.70;106152;1270;25337;-59
2023/06/19 03:45:43;;;;;;;23.60;9.70;;;;;;;13.21;87.02;100179.17;106150;1275;25303;-60
2023/06/19 03:48:14;;;;;;;20.60;9.60;;;;;;;13.24;87.29;100176.39;106113;1255;24385;-57
2023/06/19 03:50:46;;;;;;;20.60;10.50;;;;;;;13.27;87.82;100180.61;106151;1265;24339;-58
2023/06/19 03:53:17;;;;;;;23.80;10.40;;;;;;;13.30;87.93;100174.61;110165;1271;22260;-59
2023/06/19 03:55:48;;;;;;;21.20;10.20;;;;;;;13.36;88.08;100175.92;110189;1272;22200;-59
2023/06/19 03:58:19;;;;;;;23.30;11.50;;;;;;;13.41;88.17;100174.13;110170;1270;22174;-59
2023/06/19 04:00:50;;;;;;;20.00;10.60;;;;;;;13.49;88.60;100174.48;110159;1278;22137;-60
2023/06/19 04:03:21;;;;;;;23.40;12.60;;;;;;;13.59;88.80;100175.60;110150;1271;22235;-60
2023/06/19 04:05:52;;;;;;;23.80;12.40;;;;;;;13.71;89.31;100177.60;110198;1267;22229;-60
2023/06/19 04:08:25;;;;;;;23.00;11.10;;;;;;;13.82;89.48;100183.13;110202;1268;22931;-58
2023/06/19 04:10:55;;;;;;;21.90;11.60;;;;;;;13.90;89.79;100179.89;110237;1273;22333;-56
2023/06/19 04:13:26;;;;;;;24.10;12.00;;;;;;;14.01;89.94;100186.62;110212;1262;22125;-58
2023/06/19 04:15:57;;;;;;;24.70;12.50;;;;;;;14.12;89.90;100186.83;110195;1265;22201;-58
2023/06/19 04:18:28;;;;;;;25.80;13.00;;;;;;;14.23;89.92;100187.02;110213;1272;22190;-59
2023/06/19 04:20:59;;;;;;;24.90;11.80;;;;;;;14.35;90.06;100187.25;110180;1271;22703;-57
2023/06/19 04:23:30;;;;;;;25.20;12.60;;;;;;;14.47;90.01;100183.18;110167;1271;22312;-59
2023/06/19 04:26:01;;;;;;;23.60;12.30;;;;;;;14.62;90.13;100187.55;110175;1270;22151;-59
2023/06/19 04:28:32;;;;;;;22.30;12.90;;;;;;;14.77;90.27;100189.31;110154;1272;22424;-58
2023/06/19 04:31:03;;;;;;;24.70;13.30;;;;;;;14.92;90.37;100185.59;110168;1270;22281;-59
2023/06/19 04:33:34;;;;;;;22.50;12.90;;;;;;;15.08;90.37;100185.09;110153;1274;22144;-60
2023/06/19 04:36:06;;;;;;;24.60;13.50;;;;;;;15.25;90.55;100190.55;110173;1263;22114;-60
2023/06/19 04:38:36;;;;;;;28.90;15.00;;;;;;;15.41;90.54;100190.04;110146;1266;22337;-60
2023/06/19 04:41:08;;;;;;;23.00;13.30;;;;;;;15.56;90.80;100190.69;110194;1274;23037;-59
2023/06/19 04:43:41;;;;;;;28.60;15.20;;;;;;;15.69;90.75;100191.98;110155;1273;22375;-60
2023/06/19 04:46:12;;;;;;;29.00;13.70;;;;;;;15.80;90.22;100195.29;110163;1270;22360;-60
2023/06/19 04:48:43;;;;;;;28.40;14.70;;;;;;;15.91;90.11;100192.02;110118;1278;22259;-60
2023/06/19 04:51:13;;;;;;;22.70;12.90;;;;;;;16.02;90.09;100193.21;110157;1271;22937;-60
2023/06/19 04:53:44;;;;;;;26.50;14.10;;;;;;;16.14;90.04;100191.98;110178;1270;22171;-60
2023/06/19 04:56:15;;;;;;;23.70;13.60;;;;;;;16.23;89.94;100191.09;110184;1274;22233;-60
2023/06/19 04:58:47;;;;;;;26.00;14.80;;;;;;;16.33;89.97;100200.71;110152;1270;23024;-60
2023/06/19 05:01:22;;;;;;;28.80;14.20;;;;;;;16.40;89.93;100200.92;110191;1270;22918;-60
2023/06/19 05:03:53;;;;;;;25.60;13.50;;;;;;;16.48;89.87;100200.29;110173;1278;22386;-60
2023/06/19 05:06:24;;;;;;;27.10;13.20;;;;;;;16.56;89.69;100199.33;110199;1273;22192;-61
2023/06/19 05:08:55;;;;;;;24.40;12.10;;;;;;;16.67;89.36;100204.44;110178;1274;22218;-60
2023/06/19 05:11:25;;;;;;;24.90;13.90;;;;;;;16.76;88.90;100204.89;110196;1270;22149;-60
2023/06/19 05:13:56;;;;;;;27.70;15.20;;;;;;;16.85;88.99;100204.52;109506;1272;22520;-62
2023/06/19 05:16:28;;;;;;;25.30;14.20;;;;;;;16.92;88.92;100207.65;110129;1272;23575;-60
2023/06/19 05:18:58;;;;;;;27.10;14.20;;;;;;;16.99;88.74;100207.39;110164;1278;22115;-60
2023/06/19 05:21:29;;;;;;;30.00;14.90;;;;;;;17.06;88.64;100206.16;110190;1278;22175;-60
2023/06/19 05:24:00;;;;;;;26.30;13.60;;;;;;;17.11;88.56;100204.12;110201;1278;22916;-60
2023/06/19 05:26:31;;;;;;;25.60;13.90;;;;;;;17.17;88.60;100204.23;110165;1271;23006;-60
2023/06/19 05:29:02;;;;;;;25.70;13.80;;;;;;;17.24;88.32;100204.02;110158;1272;22404;-60
2023/06/19 05:31:33;;;;;;;35.50;15.10;;;;;;;17.31;88.45;100205.75;110196;1274;22168;-60
2023/06/19 05:34:04;;;;;;;27.70;13.30;;;;;;;17.32;88.19;100209.84;110170;1263;22247;-60
2023/06/19 05:36:35;;;;;;;23.70;12.60;;;;;;;17.36;88.32;100217.96;110192;1278;22309;-60
2023/06/19 05:39:06;;;;;;;27.90;13.00;;;;;;;17.44;88.50;100216.75;110196;1275;22217;-60
2023/06/19 05:41:36;;;;;;;27.40;13.00;;;;;;;17.53;88.01;100217.88;110171;1274;22241;-60
2023/06/19 05:44:09;;;;;;;25.00;12.50;;;;;;;17.62;87.88;100221.19;110207;1265;22425;-61
2023/06/19 05:46:40;;;;;;;26.30;12.60;;;;;;;17.76;88.09;100225.98;110202;1272;23103;-60
2023/06/19 05:49:11;;;;;;;25.20;13.80;;;;;;;17.90;87.73;100231.31;110187;1270;22419;-60
2023/06/19 05:51:43;;;;;;;21.10;12.30;;;;;;;18.03;87.57;100236.83;107746;1273;22524;-60
2023/06/19 05:54:13;;;;;;;24.50;11.90;;;;;;;18.18;87.79;100236.19;106376;1275;25328;-60
2023/06/19 05:56:44;;;;;;;25.70;13.10;;;;;;;18.35;87.40;100241.67;106339;1274;25355;-59
2023/06/19 05:59:15;;;;;;;22.50;12.10;;;;;;;18.52;86.90;100237.52;106209;1274;22520;-60
2023/06/19 06:01:46;;;;;;;27.50;14.00;;;;;;;18.68;86.59;100238.49;106266;1275;22520;-59
2023/06/19 06:04:18;;;;;;;27.80;12.80;;;;;;;18.82;86.28;100238.19;106403;1277;22520;-59
2023/06/19 06:06:49;;;;;;;23.20;11.70;;;;;;;19.02;85.90;100235.40;110218;1278;22249;-59
2023/06/19 06:09:20;;;;;;;20.80;11.40;;;;;;;19.17;84.77;100238.16;110190;1274;22293;-61
2023/06/19 06:11:51;;;;;;;25.20;11.70;;;;;;;19.25;84.32;100242.25;110178;1275;22816;-60
2023/06/19 06:14:22;;;;;;;24.40;11.50;;;;;;;19.30;84.05;100241.95;110194;1273;22139;-59
2023/06/19 06:16:53;;;;;;;20.50;11.60;;;;;;;19.36;83.74;100242.72;110232;1274;22145;-60
2023/06/19 06:19:24;;;;;;;20.20;10.30;;;;;;;19.42;83.06;100248.13;110192;1270;22277;-60
2023/06/19 06:21:55;;;;;;;18.70;10.40;;;;;;;19.47;83.13;100249.79;110212;1278;22948;-60
2023/06/19 06:24:26;;;;;;;18.70;10.80;;;;;;;19.54;83.12;100253.90;110211;1273;22201;-59
2023/06/19 06:26:58;;;;;;;24.90;12.90;;;;;;;19.61;83.03;100258.25;110224;1274;22180;-60
2023/06/19 06:29:29;;;;;;;21.70;10.60;;;;;;;19.69;82.87;100261.51;110193;1273;22266;-60
2023/06/19 06:32:07;;;;;;;19.90;10.00;;;;;;;19.82;82.77;100262.09;110183;1266;22188;-60
2023/06/19 06:34:38;;;;;;;20.10;10.80;;;;;;;19.96;81.95;100265.60;110179;1273;22357;-60
2023/06/19 06:37:09;;;;;;;19.60;10.00;;;;;;;20.05;81.78;100260.52;110164;1270;22405;-60
2023/06/19 06:39:40;;;;;;;20.00;10.40;;;;;;;20.15;81.57;100265.17;110162;1274;22168;-60
2023/06/19 06:42:11;;;;;;;19.10;9.80;;;;;;;20.25;81.27;100268.88;110238;1271;22467;-60
2023/06/19 06:44:42;;;;;;;21.80;9.50;;;;;;;20.34;80.82;100273.48;110180;1274;22290;-60
2023/06/19 06:47:13;;;;;;;18.20;9.70;;;;;;;20.42;80.29;100275.85;110134;1272;22491;-60
2023/06/19 06:49:44;;;;;;;20.10;10.30;;;;;;;20.51;80.04;100281.23;108068;1278;23154;-61
2023/06/19 06:52:16;;;;;;;19.40;9.10;;;;;;;20.60;79.64;100275.41;106375;1263;24356;-60
2023/06/19 06:54:47;;;;;;;18.90;10.20;;;;;;;20.71;79.56;100273.39;106314;1271;25474;-59
2023/06/19 06:57:20;;;;;;;19.00;9.10;;;;;;;20.79;78.72;100277.01;110177;1274;22330;-60
2023/06/19 06:59:51;;;;;;;17.70;7.20;;;;;;;20.84;78.58;100280.46;110190;1274;22277;-61
2023/06/19 07:02:23;;;;;;;16.40;8.30;;;;;;;20.91;78.27;100279.73;110202;1274;22303;-61
2023/06/19 07:04:54;;;;;;;16.60;8.20;;;;;;;20.97;77.85;100283.73;110166;1274;22195;-61
2023/06/19 07:07:25;;;;;;;17.50;8.30;;;;;;;21.03;77.48;100285.42;110217;1270;22209;-61
2023/06/19 07:09:56;;;;;;;15.60;8.20;;;;;;;21.10;77.23;100288.02;110186;1274;23159;-61
2023/06/19 07:12:27;;;;;;;15.90;7.00;;;;;;;21.17;76.92;100292.80;110223;1270;22165;-60
2023/06/19 07:14:58;;;;;;;12.50;5.80;;;;;;;21.24;76.44;100291.39;110213;1274;22168;-61
2023/06/19 07:17:29;;;;;;;11.90;5.10;;;;;;;21.33;76.10;100282.50;110228;1275;22241;-61
2023/06/19 07:20:00;;;;;;;12.50;5.40;;;;;;;21.41;75.52;100283.23;110211;1271;22251;-61
2023/06/19 07:22:31;;;;;;;10.80;4.60;;;;;;;21.51;75.29;100287.80;110199;1270;22307;-61
2023/06/19 07:25:02;;;;;;;14.80;5.20;;;;;;;21.59;74.89;100281.89;110193;1264;22184;-60
2023/06/19 07:27:33;;;;;;;12.20;4.60;;;;;;;21.68;74.34;100280.33;110209;1278;22382;-61
2023/06/19 07:30:04;;;;;;;11.20;4.90;;;;;;;21.77;74.28;100279.73;110204;1266;22840;-61
2023/06/19 07:32:35;;;;;;;10.60;5.00;;;;;;;21.86;73.90;100282.55;110182;1266;22171;-60
2023/06/19 07:35:07;;;;;;;12.30;5.70;;;;;;;21.92;73.59;100282.75;110195;1275;22147;-61
2023/06/19 07:37:38;;;;;;;13.70;5.10;;;;;;;22.00;73.52;100282.35;110187;1275;22186;-62
2023/06/19 07:40:11;;;;;;;10.70;4.80;;;;;;;22.10;73.53;100280.92;110194;1276;23264;-61
2023/06/19 07:42:41;;;;;;;12.10;4.90;;;;;;;22.21;73.11;100282.34;110213;1278;22168;-61
2023/06/19 07:45:14;;;;;;;12.50;4.60;;;;;;;22.31;72.53;100285.11;110217;1275;22883;-61
2023/06/19 07:47:54;;;;;;;11.80;5.70;;;;;;;22.39;71.95;100287.95;110198;1267;22888;-61
2023/06/19 07:50:25;;;;;;;14.50;6.10;;;;;;;22.44;71.76;100286.92;110211;1275;22175;-61
2023/06/19 07:52:56;;;;;;;13.80;5.50;;;;;;;22.50;71.01;100286.98;110214;1273;22211;-61
2023/06/19 07:55:28;;;;;;;12.60;4.60;;;;;;;22.58;70.60;100284.58;110208;1270;23089;-61
2023/06/19 07:57:59;;;;;;;16.20;7.90;;;;;;;22.67;71.17;100282.80;110221;1278;22215;-61
2023/06/19 08:00:30;;;;;;;19.40;6.90;;;;;;;22.82;71.16;100284.80;110214;1278;22357;-61
2023/06/19 08:03:01;;;;;;;12.30;5.80;;;;;;;22.93;70.65;100281.63;110209;1275;23087;-61
2023/06/19 08:05:32;;;;;;;11.50;5.40;;;;;;;23.00;70.32;100282.89;110217;1267;22397;-61
2023/06/19 08:08:03;;;;;;;14.30;6.20;;;;;;;23.10;70.32;100280.23;110195;1274;22228;-61
2023/06/19 08:10:34;;;;;;;10.90;4.80;;;;;;;23.21;70.60;100275.81;110206;1274;22321;-61
2023/06/19 08:13:04;;;;;;;10.60;4.60;;;;;;;23.33;69.83;100272.70;110233;1264;22198;-61
2023/06/19 08:15:35;;;;;;;10.70;4.80;;;;;;;23.44;69.13;100274.09;110220;1276;22332;-62
2023/06/19 08:18:06;;;;;;;11.20;4.30;;;;;;;23.49;68.76;100276.45;110178;1278;22140;-61
2023/06/19 08:20:37;;;;;;;13.40;4.30;;;;;;;23.55;68.14;100273.30;110223;1275;22380;-61
2023/06/19 08:23:08;;;;;;;11.10;4.20;;;;;;;23.64;67.84;100272.25;110215;1276;22189;-61
2023/06/19 08:25:39;;;;;;;10.80;4.70;;;;;;;23.72;67.58;100278.20;110222;1270;22262;-61
2023/06/19 08:28:10;;;;;;;9.20;4.10;;;;;;;23.79;67.91;100273.39;110216;1271;23115;-61
2023/06/19 08:30:41;;;;;;;9.80;4.20;;;;;;;23.89;67.44;100269.85;110228;1270;22163;-61
2023/06/19 08:33:12;;;;;;;10.10;4.60;;;;;;;23.98;66.71;100268.81;110209;1270;22158;-61
2023/06/19 08:35:44;;;;;;;10.90;4.30;;;;;;;24.08;66.35;100271.48;110211;1275;22141;-61
2023/06/19 08:38:15;;;;;;;11.10;4.60;;;;;;;24.17;66.10;100266.52;110228;1264;22904;-61
2023/06/19 08:40:46;;;;;;;12.70;3.90;;;;;;;24.24;65.43;100265.33;110222;1271;22219;-61
2023/06/19 08:43:16;;;;;;;17.40;5.50;;;;;;;24.28;64.78;100264.34;110227;1270;23125;-61
2023/06/19 08:45:58;;;;;;;8.20;3.40;;;;;;;24.33;64.49;100267.06;110247;1278;22219;-61
2023/06/19 08:48:29;;;;;;;10.70;4.30;;;;;;;24.36;63.52;100264.19;110240;1270;22155;-61
2023/06/19 08:51:00;;;;;;;11.10;4.00;;;;;;;24.42;63.97;100261.21;110221;1270;22208;-61
2023/06/19 08:53:32;;;;;;;10.20;4.60;;;;;;;24.54;63.65;100256.95;110230;1270;22329;-61
2023/06/19 08:56:04;;;;;;;9.60;3.70;;;;;;;24.64;63.41;100258.77;110242;1270;23057;-61
2023/06/19 08:58:35;;;;;;;11.00;4.10;;;;;;;24.74;63.62;100259.10;110214;1271;22974;-61
2023/06/19 09:01:06;;;;;;;12.30;4.30;;;;;;;24.84;63.31;100255.33;110213;1270;22529;-62
2023/06/19 09:03:37;;;;;;;10.10;3.70;;;;;;;24.91;63.53;100258.60;110249;1278;22270;-61
2023/06/19 09:06:09;;;;;;;7.50;3.30;;;;;;;25.01;62.66;100258.82;110249;1270;22302;-61
2023/06/19 09:08:39;;;;;;;7.60;3.30;;;;;;;25.03;61.18;100253.59;110237;1277;23120;-61
2023/06/19 09:11:12;;;;;;;8.40;3.40;;;;;;;25.05;61.59;100257.61;110203;1267;22191;-61
2023/06/19 09:13:43;;;;;;;8.10;3.40;;;;;;;25.08;61.06;100256.15;110248;1264;22195;-61
2023/06/19 09:16:14;;;;;;;12.00;3.60;;;;;;;25.11;61.20;100260.52;110210;1270;22396;-61
2023/06/19 09:18:49;;;;;;;7.10;2.90;;;;;;;25.20;61.30;100259.23;110240;1278;22246;-61
2023/06/19 09:21:21;;;;;;;13.10;3.50;;;;;;;25.31;60.82;100253.77;110222;1264;22131;-61
2023/06/19 09:23:52;;;;;;;8.00;2.90;;;;;;;25.46;60.47;100255.27;107045;1267;23031;-61
2023/06/19 09:26:23;;;;;;;10.30;4.90;;;;;;;25.62;60.10;100249.54;106227;1277;22553;-60
2023/06/19 09:28:54;;;;;;;7.30;3.10;;;;;;;25.72;59.20;100247.86;106119;1278;22523;-61
2023/06/19 09:31:37;;;;;;;6.00;2.40;;;;;;;25.73;58.99;100250.25;106213;1278;22522;-61
2023/06/19 09:34:08;;;;;;;10.50;2.30;;;;;;;25.73;58.04;100245.97;106080;1270;24265;-60
2023/06/19 09:36:41;;;;;;;9.40;2.50;;;;;;;25.81;57.74;100253.35;106318;1278;22649;-60
2023/06/19 09:39:15;;;;;;;9.30;3.50;;;;;;;25.89;56.65;100248.65;110235;1270;22302;-61
2023/06/19 09:41:51;;;;;;;7.10;3.00;;;;;;;25.90;56.55;100246.47;110233;1270;22424;-61
2023/06/19 09:44:24;;;;;;;7.20;2.50;;;;;;;25.99;56.85;100246.39;110253;1275;22329;-61
2023/06/19 09:46:57;;;;;;;6.70;2.40;;;;;;;26.08;55.48;100245.29;110189;1275;22191;-61
2023/06/19 09:49:32;;;;;;;8.80;3.30;;;;;;;26.14;55.17;100243.33;110225;1270;22249;-61
2023/06/19 09:52:03;;;;;;;6.00;2.50;;;;;;;26.18;54.98;100239.58;110246;1278;22156;-61
2023/06/19 09:54:36;;;;;;;6.40;2.20;;;;;;;26.25;54.47;100245.45;110221;1278;22326;-61
2023/06/19 09:57:08;;;;;;;6.50;2.40;;;;;;;26.33;53.57;100241.55;110234;1275;22229;-61
2023/06/19 09:59:40;;;;;;;9.50;3.00;;;;;;;26.38;53.22;100235.95;110213;1270;22229;-61
2023/06/19 10:02:14;;;;;;;8.60;2.70;;;;;;;26.43;52.41;100236.23;110218;1270;22219;-61
2023/06/19 10:04:47;;;;;;;9.00;2.40;;;;;;;26.46;51.64;100235.33;110242;1270;22923;-61
2023/06/19 10:07:23;;;;;;;7.00;2.50;;;;;;;26.45;51.42;100229.41;110234;1270;22174;-61
2023/06/19 10:10:05;;;;;;;6.70;2.80;;;;;;;26.51;51.70;100231.23;110187;1278;22150;-61
2023/06/19 10:12:41;;;;;;;9.20;2.30;;;;;;;26.54;51.15;100232.55;110166;1264;22419;-61
2023/06/19 10:15:16;;;;;;;8.20;2.50;;;;;;;26.57;50.77;100233.18;110190;1262;22353;-61
2023/06/19 10:17:49;;;;;;;7.30;2.50;;;;;;;26.65;50.12;100237.97;110189;1270;22235;-61
2023/06/19 10:20:32;;;;;;;9.90;2.80;;;;;;;26.74;49.98;100233.05;110258;1270;22343;-61
2023/06/19 10:23:06;;;;;;;7.70;2.30;;;;;;;26.80;48.53;100231.11;110221;1274;22424;-61
2023/06/19 10:25:38;;;;;;;5.90;2.60;;;;;;;26.73;47.48;100226.54;110206;1270;22171;-62
2023/06/19 10:28:21;;;;;;;6.90;2.30;;;;;;;26.65;47.83;100224.86;110217;1270;22401;-61
2023/06/19 10:30:59;;;;;;;6.20;2.40;;;;;;;26.61;47.19;100221.23;110175;1277;22208;-62
2023/06/19 10:33:32;;;;;;;8.80;2.50;;;;;;;26.58;47.46;100219.34;110238;1270;22353;-61
2023/06/19 10:36:14;;;;;;;5.40;2.50;;;;;;;26.63;47.43;100213.63;110193;1262;22183;-61
2023/06/19 10:38:47;;;;;;;6.00;1.90;;;;;;;26.74;46.62;100218.98;110249;1264;22221;-61
2023/06/19 10:41:19;;;;;;;5.90;2.00;;;;;;;26.81;45.32;100215.13;110204;1272;23061;-61
2023/06/19 10:43:58;;;;;;;6.10;2.20;;;;;;;26.74;44.67;100214.04;110252;1270;23172;-62
2023/06/19 10:46:32;;;;;;;5.80;1.80;;;;;;;26.69;44.73;100212.75;110262;1270;23043;-62
2023/06/19 10:49:04;;;;;;;8.70;2.30;;;;;;;26.75;45.01;100217.84;110242;1270;22515;-61
2023/06/19 10:51:37;;;;;;;6.10;2.00;;;;;;;26.82;44.27;100215.80;110276;1270;22944;-61
2023/06/19 10:54:08;;;;;;;5.80;2.00;;;;;;;26.94;44.39;100217.89;110244;1270;22329;-61
2023/06/19 10:56:39;;;;;;;7.10;2.10;;;;;;;27.05;44.10;100212.92;110273;1270;22314;-61
2023/06/19 10:59:13;;;;;;;6.80;2.10;;;;;;;27.10;43.65;100208.88;110258;1270;22287;-61
2023/06/19 11:01:46;;;;;;;6.50;2.20;;;;;;;27.13;43.02;100212.29;110242;1274;22183;-62
2023/06/19 11:04:18;;;;;;;6.50;2.00;;;;;;;27.08;42.46;100209.86;110234;1270;22826;-61
2023/06/19 11:06:49;;;;;;;6.60;2.10;;;;;;;27.04;42.35;100209.54;110258;1278;22236;-61
2023/06/19 11:09:21;;;;;;;6.70;1.80;;;;;;;27.10;42.86;100206.04;106656;1272;25383;-61
2023/06/19 11:11:53;;;;;;;8.90;1.80;;;;;;;27.20;41.56;100203.70;110183;1271;22174;-62
2023/06/19 11:14:25;;;;;;;5.40;2.00;;;;;;;27.33;42.17;100202.00;110223;1274;22331;-61
2023/06/19 11:16:57;;;;;;;6.90;2.50;;;;;;;27.48;41.82;100198.98;110168;1267;22397;-61
2023/06/19 11:19:34;;;;;;;13.00;7.30;;;;;;;27.61;42.16;100201.73;110229;1270;22201;-61
2023/06/19 11:22:07;;;;;;;5.30;1.80;;;;;;;27.74;41.74;100202.22;110218;1270;22894;-61
2023/06/19 11:24:43;;;;;;;4.50;1.60;;;;;;;27.81;40.67;100201.02;110252;1272;22168;-61
2023/06/19 11:27:24;;;;;;;5.80;1.90;;;;;;;27.85;40.47;100202.02;110094;1271;22217;-61
2023/06/19 11:29:59;;;;;;;6.40;1.70;;;;;;;27.90;39.87;100203.00;110219;1264;22912;-61